Solicitamos su permiso para obtener datos estadísticos de su navegación en esta web, en cumplimiento del Real Decreto-ley 13/2012. Si continúa navegando consideramos que acepta el uso de cookies. OK | Más información

MAPA DE AEROPUERTO

INFORMACIÓN METAR y TAF

METAR FOR VQPR
ADDS - METARS form results

(0347 UTC 18 January 2018)
Data provider http://aviationweather.gov/adds/metars/
 
METAR text: VQPR 180330Z 07006KT 4000 HZ SCT015 SCT050 05/M02 Q1023
Conditions at: VQPR (PARO , BT) observed 0330 UTC 18 January 2018
Temperature: 5.0°C (41°F)
Dewpoint: -2.0°C (28°F) [RH = 60%]
Pressure (altimeter): 30.21 inches Hg (1023.0 mb)
Winds: from the ENE (70 degrees) at 7 MPH (6 knots; 3.1 m/s)
Visibility: 2.49 miles (4.01 km)
Ceiling: at least 12,000 feet AGL
Clouds: scattered clouds at 1500 feet AGL
scattered clouds at 5000 feet AGL
Weather: HZ  (haze)